North Georgetown, Ohio
Current Conditions -  °F | °C
As of 3:51 AM on Friday 31 Oct 2014 (Local Time) from KCAK Reporting Station
Overcast Overcast  
Wind Chill: 44°   Ceiling: 4700
Heat Index: 44°   Visibility: 10mi
Dew Point: 39°   Wind: 0mph
Humidity: 82%   Direction: NA
Pressure: 29.98"   Gusts: NA
Location:  40.85°N, 80.98°W
Report Text: KCAK 310751Z 00000KT 10SM OVC047 07/04 A2998 RMK AO2 SLP158 T00670039
Loading
Personal Weather Stations






























Interactive Weather Map
Tropical Storm Tracking
New forecast layout! Learn more

10-Day Weather Forecast

Advertisements
Track Severe Weather on mobile